createdAt,value
2022-12-31T00:02:08.156Z,100119.59
2022-12-31T00:04:38.130Z,100129.88
2022-12-31T00:07:07.928Z,100136.34
2022-12-31T00:09:37.784Z,100117.69
2022-12-31T00:12:08.096Z,100130.19
2022-12-31T00:14:37.995Z,100135.06
2022-12-31T00:17:10.621Z,100128.31
2022-12-31T00:19:40.635Z,100138.75
2022-12-31T00:22:10.459Z,100146.44
2022-12-31T00:24:40.313Z,100134.94
2022-12-31T00:27:10.128Z,100137.41
2022-12-31T00:29:39.992Z,100151.88
2022-12-31T00:32:12.421Z,100151.81
2022-12-31T00:34:42.377Z,100155.75
2022-12-31T00:37:12.214Z,100155.97
2022-12-31T00:39:42.053Z,100175.03
2022-12-31T00:42:11.904Z,100172.38
2022-12-31T00:44:41.772Z,100187.34
2022-12-31T00:47:14.275Z,100171.91
2022-12-31T00:49:44.082Z,100170.81
2022-12-31T00:52:15.920Z,100173.34
2022-12-31T00:54:45.728Z,100179.47
2022-12-31T00:57:16.271Z,100176.50
2022-12-31T00:59:46.159Z,100176.16
2022-12-31T01:02:18.831Z,100175.78
2022-12-31T01:04:48.752Z,100200.50
2022-12-31T01:07:18.591Z,100196.09
2022-12-31T01:09:48.443Z,100196.66
2022-12-31T01:12:18.304Z,100202.94
2022-12-31T01:14:48.170Z,100201.69
2022-12-31T01:17:20.629Z,100205.00
2022-12-31T01:19:50.553Z,100209.19
2022-12-31T01:22:20.413Z,100213.28
2022-12-31T01:24:50.299Z,100211.19
2022-12-31T01:27:20.141Z,100212.25
2022-12-31T01:29:50.027Z,100202.59
2022-12-31T01:32:22.568Z,100217.53
2022-12-31T01:34:52.450Z,100227.53
2022-12-31T01:37:22.271Z,100221.31
2022-12-31T01:39:52.573Z,100223.03
2022-12-31T01:42:22.401Z,100220.56
2022-12-31T01:44:57.789Z,100231.72
2022-12-31T01:47:40.885Z,100223.78
2022-12-31T01:50:16.788Z,100228.97
2022-12-31T01:52:50.987Z,100223.78
2022-12-31T01:55:25.791Z,100211.69
2022-12-31T01:58:03.989Z,100209.53
2022-12-31T02:00:34.760Z,100220.66
2022-12-31T02:03:10.207Z,100225.06
2022-12-31T02:05:48.886Z,100244.31
2022-12-31T02:08:19.041Z,100236.19
2022-12-31T02:10:48.905Z,100243.59
2022-12-31T02:13:19.225Z,100237.31
2022-12-31T02:16:03.177Z,100237.94
2022-12-31T02:18:44.865Z,100239.44
2022-12-31T02:21:47.814Z,100227.03
2022-12-31T02:24:41.589Z,100218.69
2022-12-31T02:27:16.119Z,100224.88
2022-12-31T02:30:18.427Z,100224.00
2022-12-31T02:33:10.981Z,100226.53
2022-12-31T02:35:51.656Z,100243.72
2022-12-31T02:38:26.198Z,100238.13
2022-12-31T02:40:57.129Z,100234.97
2022-12-31T02:43:27.230Z,100229.13
2022-12-31T02:46:10.891Z,100222.00
2022-12-31T02:48:56.503Z,100224.19
2022-12-31T02:51:42.642Z,100225.03
2022-12-31T02:54:29.181Z,100221.47
2022-12-31T02:57:13.063Z,100234.25
2022-12-31T03:00:07.236Z,100238.41
2022-12-31T03:02:42.521Z,100236.72
2022-12-31T03:05:18.776Z,100241.06
2022-12-31T03:07:49.029Z,100240.91
2022-12-31T03:10:19.580Z,100230.88
2022-12-31T03:12:47.719Z,100232.94
2022-12-31T03:15:23.991Z,100243.66
2022-12-31T03:17:57.478Z,100237.19
2022-12-31T03:20:45.843Z,100253.94
2022-12-31T03:23:19.129Z,100242.22
2022-12-31T03:25:47.041Z,100257.28
2022-12-31T03:28:19.622Z,100254.34
2022-12-31T03:30:52.097Z,100248.25
2022-12-31T03:33:22.554Z,100248.91
2022-12-31T03:35:56.441Z,100249.31
2022-12-31T03:38:26.309Z,100247.69
2022-12-31T03:40:56.163Z,100232.56
2022-12-31T03:43:26.059Z,100243.50
2022-12-31T03:45:59.830Z,100239.75
2022-12-31T03:48:30.177Z,100242.25
2022-12-31T03:51:02.591Z,100238.28
2022-12-31T03:53:32.467Z,100246.84
2022-12-31T03:56:02.344Z,100255.19
2022-12-31T03:58:32.211Z,100244.34
2022-12-31T04:01:02.147Z,100239.31
2022-12-31T04:03:32.113Z,100242.44
2022-12-31T04:06:04.575Z,100237.22
2022-12-31T04:08:34.415Z,100264.88
2022-12-31T04:11:04.584Z,100263.38
2022-12-31T04:13:34.424Z,100251.84
2022-12-31T04:16:04.334Z,100240.13
2022-12-31T04:18:34.788Z,100236.38
2022-12-31T04:21:08.511Z,100227.16
2022-12-31T04:23:38.544Z,100236.38
2022-12-31T04:26:08.451Z,100244.31
2022-12-31T04:28:38.283Z,100242.91
2022-12-31T04:31:08.455Z,100241.88
2022-12-31T04:33:38.321Z,100256.53
2022-12-31T04:36:11.727Z,100251.91
2022-12-31T04:38:41.659Z,100251.28
2022-12-31T04:41:21.123Z,100259.84
2022-12-31T04:43:53.857Z,100251.66
2022-12-31T04:46:25.637Z,100263.63
2022-12-31T04:48:55.584Z,100271.56
2022-12-31T04:51:29.494Z,100279.53
2022-12-31T04:53:59.786Z,100269.28
2022-12-31T04:56:30.590Z,100275.31
2022-12-31T04:59:01.004Z,100280.16
2022-12-31T05:01:31.238Z,100277.88
2022-12-31T05:04:01.516Z,100279.97
2022-12-31T05:06:34.151Z,100283.91
2022-12-31T05:09:04.279Z,100286.84
2022-12-31T05:11:35.719Z,100284.56
2022-12-31T05:14:05.612Z,100282.47
2022-12-31T05:16:35.505Z,100281.59
2022-12-31T05:19:06.509Z,100295.66
2022-12-31T05:21:39.199Z,100289.84
2022-12-31T05:24:10.056Z,100295.47
2022-12-31T05:26:39.906Z,100297.09
2022-12-31T05:29:09.733Z,100304.22
2022-12-31T05:31:39.558Z,100290.41
2022-12-31T05:34:09.405Z,100300.47
2022-12-31T05:36:41.798Z,100304.66
2022-12-31T05:39:11.658Z,100301.94
2022-12-31T05:41:41.474Z,100308.63
2022-12-31T05:44:15.033Z,100313.88
2022-12-31T05:46:44.870Z,100318.47
2022-12-31T05:49:14.700Z,100317.63
2022-12-31T05:51:47.470Z,100330.19
2022-12-31T05:54:17.353Z,100318.88
2022-12-31T05:56:47.283Z,100318.00
2022-12-31T05:59:17.201Z,100319.28
2022-12-31T06:01:47.121Z,100325.47
2022-12-31T06:04:16.926Z,100331.00
2022-12-31T06:06:49.358Z,100321.97
2022-12-31T06:09:20.144Z,100327.63
2022-12-31T06:11:50.196Z,100317.53
2022-12-31T06:14:20.509Z,100316.28
2022-12-31T06:16:50.431Z,100326.75
2022-12-31T06:19:20.357Z,100321.06
2022-12-31T06:21:52.902Z,100325.44
2022-12-31T06:24:23.072Z,100326.06
2022-12-31T06:26:52.893Z,100321.88
2022-12-31T06:29:22.718Z,100311.47
2022-12-31T06:31:52.547Z,100331.34
2022-12-31T06:34:22.662Z,100342.19
2022-12-31T06:36:55.138Z,100339.31
2022-12-31T06:39:25.013Z,100336.38
2022-12-31T06:41:54.872Z,100343.28
2022-12-31T06:44:25.094Z,100358.94
2022-12-31T06:46:55.143Z,100357.28
2022-12-31T06:49:25.061Z,100344.78
2022-12-31T06:51:57.561Z,100347.72
2022-12-31T06:54:27.401Z,100329.72
2022-12-31T06:56:57.995Z,100338.91
2022-12-31T06:59:31.065Z,100334.28
2022-12-31T07:02:24.372Z,100338.31
2022-12-31T07:05:12.575Z,100339.97
2022-12-31T07:07:59.819Z,100336.38
2022-12-31T07:10:42.339Z,100351.94
2022-12-31T07:13:30.996Z,100338.09
2022-12-31T07:16:18.970Z,100345.00
2022-12-31T07:18:55.952Z,100348.13
2022-12-31T07:21:37.073Z,100350.44
2022-12-31T07:24:13.464Z,100354.84
2022-12-31T07:27:04.325Z,100357.78
2022-12-31T07:29:48.803Z,100376.63
2022-12-31T07:32:36.030Z,100391.91
2022-12-31T07:35:19.220Z,100385.81
2022-12-31T07:38:00.719Z,100390.25
2022-12-31T07:40:52.705Z,100395.06
2022-12-31T07:43:36.550Z,100394.44
2022-12-31T07:46:16.503Z,100395.50
2022-12-31T07:48:46.913Z,100395.94
2022-12-31T07:51:17.636Z,100396.78
2022-12-31T07:53:47.471Z,100405.41
2022-12-31T07:56:20.071Z,100406.84
2022-12-31T07:59:07.407Z,100394.13
2022-12-31T08:01:49.860Z,100390.16
2022-12-31T08:04:30.122Z,100390.59
2022-12-31T08:07:13.722Z,100403.78
2022-12-31T08:09:56.587Z,100411.13
2022-12-31T08:12:34.034Z,100413.25
2022-12-31T08:15:05.215Z,100424.75
2022-12-31T08:17:35.457Z,100417.25
2022-12-31T08:20:06.569Z,100434.50
2022-12-31T08:23:02.879Z,100437.84
2022-12-31T08:25:50.122Z,100425.50
2022-12-31T08:28:38.128Z,100431.38
2022-12-31T08:31:17.536Z,100441.88
2022-12-31T08:34:02.107Z,100424.69
2022-12-31T08:36:48.197Z,100431.47
2022-12-31T08:39:36.392Z,100430.81
2022-12-31T08:42:16.823Z,100441.75
2022-12-31T08:44:59.746Z,100422.03
2022-12-31T08:47:42.332Z,100432.72
2022-12-31T08:50:17.878Z,100432.13
2022-12-31T08:52:50.573Z,100438.00
2022-12-31T08:55:22.103Z,100434.03
2022-12-31T08:58:09.249Z,100441.56
2022-12-31T09:00:43.575Z,100453.31
2022-12-31T09:03:28.921Z,100455.00
2022-12-31T09:06:09.344Z,100451.66
2022-12-31T09:08:50.308Z,100439.69
2022-12-31T09:11:26.332Z,100436.34
2022-12-31T09:14:24.026Z,100446.63
2022-12-31T09:17:06.689Z,100446.63
2022-12-31T09:19:36.629Z,100446.63
2022-12-31T09:22:07.140Z,100436.16
2022-12-31T09:24:37.769Z,100437.78
2022-12-31T09:27:18.276Z,100445.78
2022-12-31T09:30:04.038Z,100444.97
2022-12-31T09:32:58.581Z,100445.56
2022-12-31T09:35:39.917Z,100460.50
2022-12-31T09:38:21.453Z,100450.81
2022-12-31T09:41:08.438Z,100468.88
2022-12-31T09:44:17.228Z,100467.19
2022-12-31T09:47:26.242Z,100469.28
2022-12-31T09:50:29.166Z,100465.94
2022-12-31T09:53:29.626Z,100476.84
2022-12-31T09:56:07.072Z,100472.84
2022-12-31T09:58:48.058Z,100467.63
2022-12-31T10:01:41.118Z,100463.00
2022-12-31T10:04:36.511Z,100461.31
2022-12-31T10:07:29.079Z,100461.94
2022-12-31T10:10:09.632Z,100460.47
2022-12-31T10:13:09.404Z,100471.19
2022-12-31T10:16:04.755Z,100466.34
2022-12-31T10:18:49.426Z,100457.13
2022-12-31T10:21:43.492Z,100449.09
2022-12-31T10:24:58.475Z,100444.66
2022-12-31T10:27:50.670Z,100432.88
2022-12-31T10:30:23.499Z,100426.94
2022-12-31T10:33:08.723Z,100434.34
2022-12-31T10:35:45.920Z,100439.31
2022-12-31T10:38:35.215Z,100447.28
2022-12-31T10:41:49.783Z,100453.75
2022-12-31T10:44:59.933Z,100446.38
2022-12-31T10:48:02.197Z,100432.06
2022-12-31T10:51:05.643Z,100426.59
2022-12-31T10:54:15.141Z,100439.19
2022-12-31T10:57:32.530Z,100434.97
2022-12-31T11:00:14.282Z,100428.44
2022-12-31T11:03:29.750Z,100439.09
2022-12-31T11:06:40.974Z,100435.56
2022-12-31T11:09:58.361Z,100431.88
2022-12-31T11:12:59.886Z,100424.25
2022-12-31T11:15:58.103Z,100426.94
2022-12-31T11:18:42.927Z,100431.81
2022-12-31T11:21:28.598Z,100432.41
2022-12-31T11:24:12.816Z,100441.78
2022-12-31T11:27:01.229Z,100427.47
2022-12-31T11:29:51.566Z,100421.34
2022-12-31T11:32:40.797Z,100409.16
2022-12-31T11:35:28.342Z,100414.97
2022-12-31T11:38:12.819Z,100420.59
2022-12-31T11:40:54.144Z,100406.75
2022-12-31T11:43:35.673Z,100413.63
2022-12-31T11:46:27.641Z,100414.34
2022-12-31T11:49:19.910Z,100411.13
2022-12-31T11:52:13.523Z,100404.88
2022-12-31T11:55:00.849Z,100397.59
2022-12-31T11:57:37.628Z,100399.44
2022-12-31T12:00:19.023Z,100386.66
2022-12-31T12:02:51.735Z,100388.34
2022-12-31T12:05:27.128Z,100385.91
2022-12-31T12:07:57.314Z,100376.63
2022-12-31T12:10:36.004Z,100389.41
2022-12-31T12:13:16.128Z,100382.09
2022-12-31T12:15:52.534Z,100381.03
2022-12-31T12:18:43.011Z,100393.22
2022-12-31T12:21:19.073Z,100398.53
2022-12-31T12:23:59.167Z,100391.78
2022-12-31T12:26:32.542Z,100395.50
2022-12-31T12:29:11.128Z,100389.69
2022-12-31T12:31:41.959Z,100391.91
2022-12-31T12:34:26.568Z,100389.16
2022-12-31T12:36:59.848Z,100372.94
2022-12-31T12:39:32.618Z,100384.44
2022-12-31T12:42:07.128Z,100384.13
2022-12-31T12:44:38.285Z,100387.75
2022-12-31T12:47:11.139Z,100367.59
2022-12-31T12:49:44.460Z,100382.16
2022-12-31T12:52:47.234Z,100372.78
2022-12-31T12:55:28.381Z,100370.66
2022-12-31T12:58:19.039Z,100376.13
2022-12-31T13:01:01.476Z,100364.25
2022-12-31T13:07:22.630Z,100342.59
2022-12-31T13:10:15.103Z,100345.25
2022-12-31T13:15:55.105Z,100349.28
2022-12-31T13:18:41.288Z,100342.13
2022-12-31T13:21:32.688Z,100348.22
2022-12-31T13:24:15.159Z,100351.16
2022-12-31T13:26:55.472Z,100349.91
2022-12-31T13:29:32.723Z,100346.75
2022-12-31T13:32:08.299Z,100337.75
2022-12-31T13:34:44.528Z,100339.78
2022-12-31T13:37:27.377Z,100334.44
2022-12-31T13:40:04.480Z,100336.06
2022-12-31T13:42:46.518Z,100342.75
2022-12-31T13:45:25.315Z,100336.09
2022-12-31T13:48:00.614Z,100339.41
2022-12-31T13:50:39.132Z,100341.00
2022-12-31T13:53:20.405Z,100343.13
2022-12-31T13:56:02.110Z,100345.72
2022-12-31T13:58:42.641Z,100344.03
2022-12-31T14:01:19.143Z,100335.81
2022-12-31T14:03:59.574Z,100347.38
2022-12-31T14:06:37.004Z,100344.78
2022-12-31T14:09:09.373Z,100344.50
2022-12-31T14:12:00.983Z,100332.16
2022-12-31T14:14:45.966Z,100347.56
2022-12-31T14:17:27.065Z,100345.88
2022-12-31T14:20:09.274Z,100344.38
2022-12-31T14:22:50.347Z,100347.94
2022-12-31T14:25:26.619Z,100355.00
2022-12-31T14:27:59.723Z,100358.41
2022-12-31T14:30:38.992Z,100363.03
2022-12-31T14:33:37.429Z,100359.53
2022-12-31T14:36:26.671Z,100373.44
2022-12-31T14:39:20.546Z,100370.06
2022-12-31T14:42:05.353Z,100353.56
2022-12-31T14:44:50.971Z,100354.00
2022-12-31T14:47:39.640Z,100355.97
2022-12-31T14:50:15.503Z,100361.81
2022-12-31T14:52:57.260Z,100359.13
2022-12-31T14:55:31.190Z,100359.72
2022-12-31T14:58:27.764Z,100358.31
2022-12-31T15:00:58.551Z,100361.63
2022-12-31T15:03:44.744Z,100356.72
2022-12-31T15:06:39.170Z,100351.00
2022-12-31T15:09:22.853Z,100350.38
2022-12-31T15:12:18.386Z,100355.09
2022-12-31T15:15:18.464Z,100352.34
2022-12-31T15:18:02.729Z,100355.97
2022-12-31T15:21:15.196Z,100351.00
2022-12-31T15:23:46.923Z,100351.00
2022-12-31T15:26:25.648Z,100349.53
2022-12-31T15:29:02.685Z,100354.13
2022-12-31T15:31:35.862Z,100355.31
2022-12-31T15:34:08.284Z,100348.56
2022-12-31T15:36:54.050Z,100358.06
2022-12-31T15:39:44.584Z,100361.22
2022-12-31T15:42:38.605Z,100360.59
2022-12-31T15:45:18.857Z,100361.06
2022-12-31T15:47:53.302Z,100358.28
2022-12-31T15:50:25.793Z,100367.94
2022-12-31T15:53:00.785Z,100381.03
2022-12-31T15:55:37.651Z,100372.41
2022-12-31T15:58:14.033Z,100376.81
2022-12-31T16:01:00.101Z,100386.50
2022-12-31T16:03:33.641Z,100382.72
2022-12-31T16:06:07.443Z,100388.16
2022-12-31T16:08:41.484Z,100390.91
2022-12-31T16:11:12.955Z,100388.63
2022-12-31T16:13:46.926Z,100391.41
2022-12-31T16:16:25.551Z,100405.84
2022-12-31T16:18:56.284Z,100406.28
2022-12-31T16:21:32.797Z,100412.81
2022-12-31T16:24:07.884Z,100406.31
2022-12-31T16:26:46.967Z,100407.13
2022-12-31T16:29:18.937Z,100415.31
2022-12-31T16:31:51.493Z,100422.25
2022-12-31T16:34:24.130Z,100425.19
2022-12-31T16:37:02.300Z,100421.41
2022-12-31T16:39:37.541Z,100417.66
2022-12-31T16:42:19.444Z,100419.72
2022-12-31T16:44:50.236Z,100418.50
2022-12-31T16:47:25.201Z,100425.00
2022-12-31T16:50:04.468Z,100423.34
2022-12-31T16:52:39.648Z,100425.22
2022-12-31T16:55:20.255Z,100423.72
2022-12-31T16:57:55.947Z,100431.53
2022-12-31T17:00:29.669Z,100428.34
2022-12-31T17:03:10.231Z,100426.69
2022-12-31T17:06:04.838Z,100423.13
2022-12-31T17:08:45.092Z,100424.38
2022-12-31T17:11:34.368Z,100431.06
2022-12-31T17:14:15.470Z,100427.31
2022-12-31T17:17:03.201Z,100425.63
2022-12-31T17:19:46.426Z,100429.44
2022-12-31T17:22:34.259Z,100422.06
2022-12-31T17:25:08.120Z,100418.50
2022-12-31T17:27:40.808Z,100421.84
2022-12-31T17:30:41.167Z,100415.34
2022-12-31T17:33:31.359Z,100422.69
2022-12-31T17:36:24.806Z,100415.56
2022-12-31T17:38:54.805Z,100412.63
2022-12-31T17:41:30.257Z,100418.94
2022-12-31T17:44:05.644Z,100421.44
2022-12-31T17:46:45.493Z,100416.63
2022-12-31T17:49:22.133Z,100422.06
2022-12-31T17:51:52.586Z,100417.25
2022-12-31T17:54:28.747Z,100424.38
2022-12-31T18:08:01.237Z,100431.09
2022-12-31T18:10:37.457Z,100443.25
2022-12-31T18:13:10.905Z,100448.69
2022-12-31T18:15:43.624Z,100446.41
2022-12-31T18:18:25.350Z,100448.69
2022-12-31T18:20:59.182Z,100455.84
2022-12-31T18:23:31.937Z,100441.56
2022-12-31T18:26:01.803Z,100451.03
2022-12-31T18:28:31.985Z,100452.06
2022-12-31T18:31:04.598Z,100457.50
2022-12-31T18:33:34.610Z,100460.00
2022-12-31T18:36:09.145Z,100462.53
2022-12-31T18:38:40.803Z,100460.00
2022-12-31T18:41:19.537Z,100453.31
2022-12-31T18:43:50.260Z,100465.03
2022-12-31T18:46:25.539Z,100450.78
2022-12-31T18:48:55.461Z,100438.38
2022-12-31T18:51:32.157Z,100436.88
2022-12-31T18:54:02.594Z,100428.50
2022-12-31T18:56:32.608Z,100437.06
2022-12-31T18:59:02.594Z,100439.34
2022-12-31T19:01:37.634Z,100430.19
2022-12-31T19:04:18.717Z,100441.28
2022-12-31T19:06:52.402Z,100439.41
2022-12-31T19:12:15.622Z,100442.78
2022-12-31T19:14:45.980Z,100443.25
2022-12-31T19:17:18.519Z,100437.16
2022-12-31T19:19:48.367Z,100436.94
2022-12-31T19:22:18.480Z,100445.13
2022-12-31T19:24:48.348Z,100451.81
2022-12-31T19:27:18.308Z,100447.66
2022-12-31T19:29:48.150Z,100452.47
2022-12-31T19:32:20.773Z,100447.44
2022-12-31T19:34:50.648Z,100448.69
2022-12-31T19:37:20.500Z,100447.41
2022-12-31T19:39:51.506Z,100441.34
2022-12-31T19:42:21.559Z,100449.94
2022-12-31T19:44:51.440Z,100441.09
2022-12-31T19:47:23.955Z,100448.69
2022-12-31T19:50:15.436Z,100437.13
2022-12-31T19:52:46.948Z,100432.28
2022-12-31T19:55:19.435Z,100440.25
2022-12-31T19:57:49.901Z,100427.41
2022-12-31T20:00:21.553Z,100426.38
2022-12-31T20:02:54.182Z,100439.56
2022-12-31T20:05:24.276Z,100436.44
2022-12-31T20:07:54.169Z,100441.03
2022-12-31T20:10:24.128Z,100442.69
2022-12-31T20:12:53.990Z,100447.91
2022-12-31T20:15:23.882Z,100453.78
2022-12-31T20:17:57.563Z,100451.66
2022-12-31T20:20:29.128Z,100459.44
2022-12-31T20:22:59.800Z,100470.53
2022-12-31T20:25:29.709Z,100478.09
2022-12-31T20:27:59.621Z,100470.78
2022-12-31T20:30:29.516Z,100482.72
2022-12-31T20:33:02.022Z,100478.28
2022-12-31T20:35:31.836Z,100478.47
2022-12-31T20:38:01.800Z,100479.88
2022-12-31T20:40:31.710Z,100475.94
2022-12-31T20:43:01.649Z,100478.19
2022-12-31T20:45:31.590Z,100477.34
2022-12-31T20:48:04.061Z,100486.50
2022-12-31T20:50:33.906Z,100482.38
2022-12-31T20:53:03.889Z,100472.50
2022-12-31T20:55:33.772Z,100481.06
2022-12-31T20:58:04.250Z,100474.59
2022-12-31T21:00:35.154Z,100475.22
2022-12-31T21:03:23.787Z,100480.69
2022-12-31T21:05:57.906Z,100488.19
2022-12-31T21:08:34.344Z,100474.19
2022-12-31T21:11:25.203Z,100476.50
2022-12-31T21:13:52.778Z,100476.94
2022-12-31T21:16:22.828Z,100479.03
2022-12-31T21:18:55.518Z,100477.19
2022-12-31T21:21:26.462Z,100485.81
2022-12-31T21:23:56.440Z,100484.56
2022-12-31T21:26:26.290Z,100484.16
2022-12-31T21:28:56.401Z,100490.41
2022-12-31T21:31:26.519Z,100499.91
2022-12-31T21:33:59.238Z,100498.03
2022-12-31T21:36:29.210Z,100495.06
2022-12-31T21:38:59.151Z,100497.16
2022-12-31T21:41:41.493Z,100496.22
2022-12-31T21:44:11.451Z,100502.13
2022-12-31T21:47:00.879Z,100500.31
2022-12-31T21:49:33.846Z,100505.50
2022-12-31T21:52:16.135Z,100505.50
2022-12-31T21:54:58.462Z,100505.72
2022-12-31T21:57:28.352Z,100506.75
2022-12-31T22:00:40.251Z,100512.16
2022-12-31T22:03:13.428Z,100519.69
2022-12-31T22:05:54.433Z,100523.84
2022-12-31T22:08:25.656Z,100519.41
2022-12-31T22:10:55.514Z,100540.53
2022-12-31T22:13:26.515Z,100530.50
2022-12-31T22:16:04.387Z,100532.56
2022-12-31T22:18:38.859Z,100533.59
2022-12-31T22:21:18.987Z,100528.97
2022-12-31T22:23:50.777Z,100530.84
2022-12-31T22:26:23.527Z,100538.81
2022-12-31T22:28:58.992Z,100537.50
2022-12-31T22:31:30.723Z,100539.44
2022-12-31T22:34:02.075Z,100546.34
2022-12-31T22:36:34.632Z,100552.47
2022-12-31T22:39:04.500Z,100550.38
2022-12-31T22:41:34.968Z,100547.22
2022-12-31T22:44:05.168Z,100548.59
2022-12-31T22:46:35.760Z,100551.13
2022-12-31T22:49:07.421Z,100554.44
2022-12-31T22:51:57.699Z,100560.91
2022-12-31T22:54:28.779Z,100565.53
2022-12-31T22:56:58.716Z,100559.09
2022-12-31T22:59:28.714Z,100566.22
2022-12-31T23:01:58.743Z,100562.41
2022-12-31T23:04:28.974Z,100574.38
2022-12-31T23:07:01.947Z,100569.56
2022-12-31T23:09:44.495Z,100575.44
2022-12-31T23:12:14.402Z,100578.31
2022-12-31T23:14:56.843Z,100580.88
2022-12-31T23:17:42.328Z,100581.03
2022-12-31T23:20:28.781Z,100577.03
2022-12-31T23:23:11.620Z,100568.28
2022-12-31T23:25:44.345Z,100575.09
2022-12-31T23:28:18.173Z,100571.22
2022-12-31T23:30:48.187Z,100577.94
2022-12-31T23:33:20.190Z,100571.25
2022-12-31T23:35:50.430Z,100578.81
2022-12-31T23:38:22.996Z,100568.34
2022-12-31T23:40:54.236Z,100574.75
2022-12-31T23:43:25.250Z,100567.84
2022-12-31T23:45:56.086Z,100578.75
2022-12-31T23:48:26.059Z,100576.22
2022-12-31T23:50:56.026Z,100579.09
2022-12-31T23:53:28.594Z,100584.34
2022-12-31T23:55:58.906Z,100576.38
2022-12-31T23:58:28.845Z,100568.63
